CheckWX is a tool to help pilots better visualize weather data.  It is not intended as a substitute for an official pre-flight weather briefing.

06:14:15 UTC

EGCN METAR
Robin Hood Doncaster Sheffield Airport
Doncaster, United Kingdom
Current

24 mins ago

EGCN 230550Z 34004KT 5000 BR NSC 08/07 Q1002
Observed
Apr-23 @ 05:50 UTC
Wind
  • 340° at 4 KTS
Visibility
5,005 meters
Flight Rules
MVFR
Conditions
Mist
Cloud Levels
  • Clear skies
Temperature
C / 46°F
Dewpoint
C / 45°F
Humidity
93%
Altimeter
29.59" Hg
Pressure
1001.92 hPa
Previous

54 mins ago

EGCN 230520Z 31004KT 4000 BR NSC 08/07 Q1002
Observed
Apr-23 @ 05:20 UTC
Wind
  • 310° at 4 KTS
Visibility
4,007 meters
Flight Rules
IFR
Conditions
Mist
Cloud Levels
  • Clear skies
Temperature
C / 46°F
Dewpoint
C / 45°F
Humidity
93%
Altimeter
29.59" Hg
Pressure
1001.92 hPa
Previous

1 hour ago

EGCN 230450Z 32004KT 3500 BR NSC 07/07 Q1002
Observed
Apr-23 @ 04:50 UTC
Wind
  • 320° at 4 KTS
Visibility
3,492 meters
Flight Rules
IFR
Conditions
Mist
Cloud Levels
  • Clear skies
Temperature
C / 45°F
Dewpoint
C / 45°F
Humidity
100%
Altimeter
29.59" Hg
Pressure
1001.92 hPa